Nearby METAR Reports

 

KSJC - San Jose, California, USA
Distance from station: NO 14km
aktuell: 13/06/2024 17:53
Few Clouds
Few Clouds
 Wind von SO
Wind: SO 15 km/h
Temperatur: 18°C
Taupunkt: 11°C
Luftfeuchte: 64%
Luftdruck: 1013.9 hPa
Clouds: Few Clouds
Visibility: 16 km
Cloud details: Few Clouds 427 m
Few Clouds 3658 m
Few Clouds 4877 m
2024/06/13 15:53 KSJC 131553Z 13008KT 10SM FEW014 FEW120 FEW160 18/11 A2994 RMK AO2 SLP136 T01830106
KNUQ - Moffett Nas/Mtn, California, USA
Distance from station: N 14km
aktuell: 13/06/2024 18:35
klar
klar
 Wind von NNW
Wind: NNW 13 km/h
Temperatur: 18°C
Taupunkt: 12°C
Luftfeuchte: 68%
Luftdruck: 1013.9 hPa
Clouds: klar
Visibility: 14 km
2024/06/13 16:35 KNUQ 131635Z AUTO 34007KT 9SM CLR 18/12 A2994 RMK AO2
KPAO - Palo Alto, California, USA
Distance from station: NNW 23km
aktuell: 13/06/2024 17:47
teilweise bewölkt
teilweise bewölkt
 Wind von NNW
Wind: NNW 7 km/h
Temperatur: 16°C
Taupunkt: 13°C
Luftfeuchte: 83%
Luftdruck: 1013.5 hPa
Clouds: teilweise bewölkt
Visibility: 16 km
Cloud details: teilweise bewölkt 366 m
2024/06/13 15:47 KPAO 131547Z 34004KT 10SM SCT012 16/13 A2993
 
KRHV - San Jose/Reid, California, USA
Distance from station: ONO 19km
aktuell: 13/06/2024 17:47
klar
klar
 Wind von S
Wind: S 22 km/h
Temperatur: 17°C
Taupunkt: 11°C
Luftfeuchte: 68%
Luftdruck: 1013.9 hPa
Clouds: klar
Visibility: 16 km
2024/06/13 15:47 KRHV 131547Z 19012KT 10SM SKC 17/11 A2994
KOAK - Oakland, California, USA
Distance from station: NNW 50km
aktuell: 13/06/2024 17:53
stark bewölkt
stark bewölkt
 Wind von W
Wind: W 6 km/h
Temperatur: 16°C
Taupunkt: 11°C
Luftfeuchte: 72%
Luftdruck: 1014.6 hPa
Clouds: stark bewölkt
Visibility: 16 km
Cloud details: stark bewölkt 396 m
2024/06/13 15:53 KOAK 131553Z 28003KT 10SM BKN013 16/11 A2996 RMK AO2 SLP143 T01560111
KSQL - San Carlos Airpo, California, USA
Distance from station: NW 34km
aktuell: 13/06/2024 16:47
NOT Current
teilweise bewölkt
teilweise bewölkt
 Wind von W
Wind: W 11 km/h
Temperatur: 13°C
Taupunkt: 10°C
Luftfeuchte: 82%
Luftdruck: 1013.9 hPa
Clouds: teilweise bewölkt
Visibility: 16 km
Cloud details: teilweise bewölkt 366 m
2024/06/13 14:47 KSQL 131447Z 28006KT 10SM SCT012 13/10 A2994
 
KSFO - San Francisco, California, USA
Distance from station: NW 49km
aktuell: 13/06/2024 17:56
Few Clouds
Few Clouds
 Wind von ONO
Wind: ONO 6 km/h
Temperatur: 15°C
Taupunkt: 10°C
Luftfeuchte: 72%
Luftdruck: 1014.2 hPa
Clouds: Few Clouds
Visibility: 16 km
Cloud details: Few Clouds 183 m
Few Clouds 488 m
2024/06/13 15:56 KSFO 131556Z 06003KT 10SM FEW006 FEW016 15/10 A2995 RMK AO2 SLP140 T01500100
KE16 - San Martin, California, USA
Distance from station: OSO 43km
aktuell: 13/06/2024 18:35
stark bewölkt
stark bewölkt
 Wind von OSO
Wind: OSO 24 km/h, Windböen: 31 km/h
Temperatur: 15°C
Taupunkt: 10°C
Luftfeuchte: 72%
Luftdruck: 1015.6 hPa
Clouds: stark bewölkt
Visibility: 16 km
Cloud details: stark bewölkt 396 m
2024/06/13 16:35 KE16 131635Z AUTO 12013G17KT 10SM BKN013 15/10 A2999 RMK AO2
KWVI - Watsonville, California, USA
Distance from station: SSO 44km
aktuell: 13/06/2024 17:53
geschlossene Wolkendecke
geschlossene Wolkendecke
 Wind von WSW
Wind: WSW 9 km/h
Temperatur: 12°C
Taupunkt: 10°C
Luftfeuchte: 88%
Luftdruck: 1015.9 hPa
Clouds: geschlossene Wolkendecke
Visibility: 16 km
Cloud details: geschlossene Wolkendecke 244 m
2024/06/13 15:53 KWVI 131553Z AUTO 25005KT 10SM OVC008 12/10 A3000 RMK AO2 SLP158 T01220100
 
KHAF - Half Moon Bay, California, USA
Distance from station: WNW 50km
aktuell: 13/06/2024 18:35
Mist, teilweise bewölkt
Mist, teilweise bewölkt
 Wind von SW
Wind: SW 13 km/h
Temperatur: 11°C
Taupunkt: 11°C
Luftfeuchte: 100%
Luftdruck: 1015.9 hPa
Zusammenfassung: Mist
Clouds: teilweise bewölkt
Visibility: 4 km
Cloud details: teilweise bewölkt 213 m
teilweise bewölkt 396 m
2024/06/13 16:35 KHAF 131635Z AUTO 23007KT 2 1/2SM BR SCT007 SCT013 11/11 A3000 RMK AO2
KHWD - Hayward, California, USA
Distance from station: N 44km
aktuell: 13/06/2024 18:40
teilweise bewölkt
teilweise bewölkt
 Wind von W
Wind: W 17 km/h
Temperatur: 17°C
Taupunkt: 10°C
Luftfeuchte: 64%
Luftdruck: 1014.2 hPa
Clouds: teilweise bewölkt
Visibility: 16 km
Cloud details: teilweise bewölkt 427 m
2024/06/13 16:40 KHWD 131640Z 26009KT 10SM SCT014 17/10 A2995 RMK AO2 T01670100
KLVK - Livermore, California, USA
Distance from station: NNO 51km
aktuell: 13/06/2024 17:53
klar
klar
 Wind von NW
Wind: NW 9 km/h
Temperatur: 18°C
Taupunkt: 12°C
Luftfeuchte: 68%
Luftdruck: 1013.2 hPa
Clouds: klar
Visibility: 16 km
2024/06/13 15:53 KLVK 131553Z 32005KT 10SM CLR 18/12 A2992 RMK AO2 SLP128 T01780117